Time;durP1;ratioP1;P1;durP2;ratioP2;P2;SDS_P1;SDS_P2;PMS_P1;PMS_P2;Temp;Humidity;BMP_temperature;BMP_pressure;BME280_temperature;BME280_humidity;BME280_pressure;Samples;Min_cycle;Max_cycle;Signal;HPM_P1;HPM_P2
2022/12/10 00:00:50;;;;;;;32.38;11.55;;;;;;;;;;6252823;23;20027;-89
2022/12/10 00:03:19;;;;;;;37.95;10.93;;;;;;;;;;6253317;23;20016;-89
2022/12/10 00:05:47;;;;;;;38.30;11.88;;;;;;;;;;6226662;23;20114;-88
2022/12/10 00:08:15;;;;;;;36.45;12.63;;;;;;;;;;6251420;23;20047;-88
2022/12/10 00:10:43;;;;;;;36.28;12.52;;;;;;;;;;6251957;23;20015;-88
2022/12/10 00:13:11;;;;;;;36.80;11.52;;;;;;;;;;6252432;23;20452;-88
2022/12/10 00:15:39;;;;;;;32.95;11.32;;;;;;;;;;6251591;23;20024;-89
2022/12/10 00:18:07;;;;;;;38.38;11.15;;;;;;;;;;6251987;23;20022;-88
2022/12/10 00:20:36;;;;;;;34.53;11.52;;;;;;;;;;6251377;23;20016;-89
2022/12/10 00:23:05;;;;;;;34.05;10.05;;;;;;;;;;6225967;23;20020;-89
2022/12/10 00:25:33;;;;;;;29.98;11.18;;;;;;;;;;6251350;23;20459;-89
2022/12/10 00:28:05;;;;;;;39.60;11.68;;;;;;;;;;6253234;23;20026;-89
2022/12/10 00:30:33;;;;;;;29.95;10.27;;;;;;;;;;6252795;23;20023;-89
2022/12/10 00:33:01;;;;;;;27.52;10.23;;;;;;;;;;6253050;23;20023;-88
2022/12/10 00:35:29;;;;;;;28.75;9.35;;;;;;;;;;6200994;23;20082;-88
2022/12/10 00:37:57;;;;;;;29.25;10.07;;;;;;;;;;6224965;23;20024;-89
2022/12/10 00:40:25;;;;;;;28.77;10.27;;;;;;;;;;6226003;23;20016;-87
2022/12/10 00:43:17;;;;;;;31.75;10.25;;;;;;;;;;6252691;23;20097;-88
2022/12/10 00:45:45;;;;;;;29.02;9.75;;;;;;;;;;6226001;23;20098;-88
2022/12/10 00:48:13;;;;;;;26.85;9.95;;;;;;;;;;6214543;23;20020;-88
2022/12/10 00:50:41;;;;;;;30.88;10.13;;;;;;;;;;6225584;23;20040;-88
2022/12/10 00:53:14;;;;;;;28.05;10.63;;;;;;;;;;6188872;23;20078;-88
2022/12/10 00:55:41;;;;;;;26.98;10.10;;;;;;;;;;6250437;23;20020;-88
2022/12/10 00:58:13;;;;;;;30.08;10.20;;;;;;;;;;6225125;23;20020;-88
2022/12/10 01:00:45;;;;;;;38.30;10.23;;;;;;;;;;6200942;23;20031;-88
2022/12/10 01:03:13;;;;;;;31.58;10.55;;;;;;;;;;6222932;23;20016;-88
2022/12/10 01:05:41;;;;;;;25.25;10.55;;;;;;;;;;6250810;23;20321;-88
2022/12/10 01:08:09;;;;;;;35.78;10.82;;;;;;;;;;6165948;23;20032;-88
2022/12/10 01:10:37;;;;;;;33.85;9.73;;;;;;;;;;6252384;23;20030;-88
2022/12/10 01:13:05;;;;;;;29.10;10.02;;;;;;;;;;6225970;23;20457;-88
2022/12/10 01:15:37;;;;;;;29.13;10.48;;;;;;;;;;6190196;23;20019;-88
2022/12/10 01:18:05;;;;;;;30.55;9.43;;;;;;;;;;6225752;23;20023;-88
2022/12/10 01:20:40;;;;;;;31.52;10.07;;;;;;;;;;6253607;23;20016;-88
2022/12/10 01:23:08;;;;;;;27.65;10.02;;;;;;;;;;6228397;23;20020;-88
2022/12/10 01:25:37;;;;;;;34.35;11.55;;;;;;;;;;6193764;23;20112;-89
2022/12/10 01:28:07;;;;;;;27.30;9.63;;;;;;;;;;6192203;23;20024;-88
2022/12/10 01:30:35;;;;;;;28.25;9.90;;;;;;;;;;6167982;23;20024;-89
2022/12/10 01:33:08;;;;;;;35.45;11.85;;;;;;;;;;6251049;23;20023;-88
2022/12/10 01:36:06;;;;;;;28.13;10.07;;;;;;;;;;6252209;23;20050;-88
2022/12/10 01:38:33;;;;;;;27.35;10.13;;;;;;;;;;6225029;23;20020;-88
2022/12/10 01:41:29;;;;;;;26.83;9.02;;;;;;;;;;6253474;23;20012;-88
2022/12/10 01:43:59;;;;;;;28.77;9.57;;;;;;;;;;6229226;23;20054;-89
2022/12/10 01:46:43;;;;;;;21.05;9.68;;;;;;;;;;6204681;23;20044;-89
2022/12/10 01:49:18;;;;;;;27.45;9.50;;;;;;;;;;6254309;23;20016;-88
2022/12/10 01:51:55;;;;;;;29.92;9.70;;;;;;;;;;6191911;23;20039;-89
2022/12/10 01:54:27;;;;;;;32.85;9.60;;;;;;;;;;6203453;23;20016;-89
2022/12/10 01:57:06;;;;;;;29.73;9.90;;;;;;;;;;6229356;23;20326;-88
2022/12/10 01:59:40;;;;;;;24.05;8.73;;;;;;;;;;6230654;23;20066;-89
2022/12/10 02:02:28;;;;;;;31.77;10.57;;;;;;;;;;6256890;23;20020;-89
2022/12/10 02:05:35;;;;;;;32.28;10.98;;;;;;;;;;6197351;23;20016;-89
2022/12/10 02:08:02;;;;;;;23.25;8.82;;;;;;;;;;6221915;23;20035;-89
2022/12/10 02:28:11;;;;;;;23.40;8.90;;;;;;;;;;5057401;28;19921;-87
2022/12/10 02:30:42;;;;;;;20.23;7.03;;;;;;;;;;5085088;28;20488;-87
2022/12/10 02:33:18;;;;;;;23.30;7.97;;;;;;;;;;5022442;28;20080;-87
2022/12/10 02:35:50;;;;;;;19.35;7.20;;;;;;;;;;5052620;28;20041;-87
2022/12/10 02:38:26;;;;;;;18.25;7.38;;;;;;;;;;5087949;28;20045;-87
2022/12/10 02:41:05;;;;;;;18.95;7.38;;;;;;;;;;5070365;28;20095;-87
2022/12/10 02:43:34;;;;;;;16.52;6.85;;;;;;;;;;5051372;28;20033;-87
2022/12/10 02:46:05;;;;;;;16.63;5.88;;;;;;;;;;5049200;28;20045;-87
2022/12/10 02:48:40;;;;;;;12.52;5.68;;;;;;;;;;5050224;28;20071;-87
2022/12/10 02:51:09;;;;;;;13.55;5.53;;;;;;;;;;5050860;28;20497;-88
2022/12/10 02:53:43;;;;;;;12.85;5.47;;;;;;;;;;5035111;28;20037;-87
2022/12/10 02:56:26;;;;;;;11.98;4.53;;;;;;;;;;5049585;28;20045;-87
2022/12/10 02:59:28;;;;;;;16.33;5.75;;;;;;;;;;5082413;28;20455;-87
2022/12/10 03:02:11;;;;;;;13.77;5.22;;;;;;;;;;5048146;28;20456;-87
2022/12/10 03:05:12;;;;;;;11.57;5.10;;;;;;;;;;5063665;28;20400;-87
2022/12/10 03:08:14;;;;;;;11.48;4.82;;;;;;;;;;5082726;28;20144;-87
2022/12/10 03:10:55;;;;;;;10.15;4.10;;;;;;;;;;5052261;28;20037;-87
2022/12/10 03:13:32;;;;;;;10.88;4.15;;;;;;;;;;5063210;28;20124;-87
2022/12/10 03:16:00;;;;;;;10.25;5.00;;;;;;;;;;5052457;28;20053;-88
2022/12/10 03:18:31;;;;;;;14.48;4.95;;;;;;;;;;5050897;28;20052;-87
2022/12/10 03:21:05;;;;;;;16.63;5.82;;;;;;;;;;5053046;28;20043;-88
2022/12/10 03:23:36;;;;;;;13.52;5.18;;;;;;;;;;5046660;28;20037;-87
2022/12/10 03:26:09;;;;;;;13.68;5.22;;;;;;;;;;5071015;28;20065;-87
2022/12/10 03:28:51;;;;;;;15.50;5.28;;;;;;;;;;5065796;28;20049;-87
2022/12/10 03:31:25;;;;;;;11.50;5.30;;;;;;;;;;5036140;28;20556;-87
2022/12/10 03:33:54;;;;;;;14.43;5.13;;;;;;;;;;5039631;28;20037;-87
2022/12/10 03:36:29;;;;;;;11.35;5.15;;;;;;;;;;5038701;28;20045;-87
2022/12/10 03:38:57;;;;;;;14.25;5.55;;;;;;;;;;5040014;28;20103;-87
2022/12/10 03:41:25;;;;;;;12.88;4.80;;;;;;;;;;5040453;28;20052;-87
2022/12/10 03:43:55;;;;;;;8.45;4.30;;;;;;;;;;5039112;28;20045;-87
2022/12/10 03:46:25;;;;;;;11.00;4.45;;;;;;;;;;5036484;28;20544;-87
2022/12/10 03:49:17;;;;;;;10.32;4.10;;;;;;;;;;5036395;28;20064;-87
2022/12/10 03:51:45;;;;;;;9.93;4.53;;;;;;;;;;5036441;28;20073;-87
2022/12/10 03:54:17;;;;;;;11.63;4.40;;;;;;;;;;5066621;28;20068;-87
2022/12/10 03:56:49;;;;;;;11.60;4.47;;;;;;;;;;5034705;28;20126;-87
2022/12/10 03:59:17;;;;;;;11.02;4.10;;;;;;;;;;5054702;28;20041;-87
2022/12/10 04:01:50;;;;;;;10.70;3.92;;;;;;;;;;5037350;28;20128;-87
2022/12/10 04:04:17;;;;;;;11.20;4.63;;;;;;;;;;5052547;28;20063;-88
2022/12/10 04:06:45;;;;;;;13.07;5.22;;;;;;;;;;5036920;28;20048;-87
2022/12/10 04:09:39;;;;;;;10.52;4.38;;;;;;;;;;5033575;28;20037;-87
2022/12/10 04:12:11;;;;;;;12.32;5.22;;;;;;;;;;5039701;28;20511;-87
2022/12/10 04:17:25;;;;;;;11.13;5.18;;;;;;;;;;5037516;28;20053;-87
2022/12/10 04:19:53;;;;;;;9.70;4.13;;;;;;;;;;5039375;28;20044;-87
2022/12/10 04:28:05;;;;;;;17.77;6.72;;;;;;;;;;5033979;28;20045;-87
2022/12/10 04:30:33;;;;;;;14.18;6.65;;;;;;;;;;5035041;28;20115;-87
2022/12/10 04:33:06;;;;;;;10.88;5.25;;;;;;;;;;5036173;28;20037;-87
2022/12/10 04:35:38;;;;;;;10.73;5.35;;;;;;;;;;5062328;28;20041;-87
2022/12/10 04:38:30;;;;;;;13.20;5.18;;;;;;;;;;5036526;28;20033;-87
2022/12/10 04:40:59;;;;;;;15.35;6.80;;;;;;;;;;5038854;28;20049;-87
2022/12/10 04:43:27;;;;;;;12.30;4.78;;;;;;;;;;5034245;28;20448;-87
2022/12/10 04:45:58;;;;;;;10.32;5.15;;;;;;;;;;5022224;28;20069;-87
2022/12/10 04:48:25;;;;;;;11.73;5.55;;;;;;;;;;5048909;28;20067;-85
2022/12/10 04:50:52;;;;;;;13.95;5.38;;;;;;;;;;5053749;28;20060;-87
2022/12/10 04:53:22;;;;;;;8.90;4.38;;;;;;;;;;5034552;28;20065;-87
2022/12/10 04:55:49;;;;;;;13.13;6.20;;;;;;;;;;5038053;28;20761;-87
2022/12/10 04:58:17;;;;;;;11.93;5.10;;;;;;;;;;5031848;28;20060;-87
2022/12/10 05:00:45;;;;;;;14.38;5.15;;;;;;;;;;5067859;28;20049;-87
2022/12/10 05:03:17;;;;;;;15.63;5.75;;;;;;;;;;5041153;28;20456;-88
2022/12/10 05:05:44;;;;;;;12.38;5.30;;;;;;;;;;5036416;28;20051;-87
2022/12/10 05:08:13;;;;;;;12.95;5.45;;;;;;;;;;5032166;28;20064;-87
2022/12/10 05:10:41;;;;;;;12.98;5.00;;;;;;;;;;5020356;28;20595;-87
2022/12/10 05:13:33;;;;;;;13.40;5.60;;;;;;;;;;5035869;28;20048;-87
2022/12/10 05:16:03;;;;;;;11.10;5.60;;;;;;;;;;5037317;28;20529;-87
2022/12/10 05:18:55;;;;;;;11.05;5.22;;;;;;;;;;5068937;28;20041;-87
2022/12/10 05:24:23;;;;;;;15.45;6.28;;;;;;;;;;4976581;28;20046;-87
2022/12/10 05:26:51;;;;;;;13.38;5.72;;;;;;;;;;4995346;28;20054;-87
2022/12/10 05:29:43;;;;;;;12.68;5.78;;;;;;;;;;4980699;28;20477;-87
2022/12/10 05:32:11;;;;;;;9.32;4.95;;;;;;;;;;4990008;28;20046;-87
2022/12/10 05:34:39;;;;;;;11.63;5.15;;;;;;;;;;5010405;28;20034;-87
2022/12/10 05:37:33;;;;;;;11.93;4.80;;;;;;;;;;4995692;28;20616;-88
2022/12/10 05:40:05;;;;;;;11.88;5.65;;;;;;;;;;5008661;28;20046;-87
2022/12/10 05:42:35;;;;;;;14.23;5.57;;;;;;;;;;4977023;28;20058;-87
2022/12/10 05:45:27;;;;;;;14.48;6.47;;;;;;;;;;4993516;28;20185;-87
2022/12/10 05:48:00;;;;;;;13.30;5.85;;;;;;;;;;5009069;28;20077;-87
2022/12/10 05:50:31;;;;;;;12.10;5.65;;;;;;;;;;4993974;28;20996;-87
2022/12/10 05:53:23;;;;;;;14.85;6.32;;;;;;;;;;4993078;28;20049;-87
2022/12/10 05:56:18;;;;;;;11.88;5.80;;;;;;;;;;4977940;28;20651;-87
2022/12/10 05:58:46;;;;;;;13.25;6.82;;;;;;;;;;4992747;28;20082;-87
2022/12/10 06:01:21;;;;;;;12.82;6.00;;;;;;;;;;5010692;28;20054;-87
2022/12/10 06:03:52;;;;;;;12.00;5.72;;;;;;;;;;5033392;28;20037;-87
2022/12/10 06:06:22;;;;;;;13.52;6.35;;;;;;;;;;5035530;28;20042;-87
2022/12/10 06:08:51;;;;;;;15.65;6.82;;;;;;;;;;5066329;28;20045;-87
2022/12/10 06:11:26;;;;;;;15.25;6.72;;;;;;;;;;5033654;28;20095;-87
2022/12/10 06:13:59;;;;;;;11.73;5.80;;;;;;;;;;5032616;28;20033;-87
2022/12/10 06:16:33;;;;;;;13.93;5.68;;;;;;;;;;5035426;28;20037;-87
2022/12/10 06:19:05;;;;;;;14.10;5.72;;;;;;;;;;5036382;28;20060;-87
2022/12/10 06:21:34;;;;;;;13.70;6.45;;;;;;;;;;5066073;28;20476;-87
2022/12/10 06:24:03;;;;;;;15.57;5.47;;;;;;;;;;5038662;28;20041;-87
2022/12/10 06:26:31;;;;;;;15.80;6.10;;;;;;;;;;5038304;28;20406;-88
2022/12/10 06:29:00;;;;;;;14.02;6.50;;;;;;;;;;5044750;28;20052;-87
2022/12/10 06:31:27;;;;;;;17.38;7.35;;;;;;;;;;5033614;28;20037;-87
2022/12/10 06:33:55;;;;;;;16.90;7.22;;;;;;;;;;5032480;28;20739;-87
2022/12/10 06:36:47;;;;;;;15.65;6.70;;;;;;;;;;5034120;28;20037;-87
2022/12/10 06:39:15;;;;;;;12.48;6.00;;;;;;;;;;5036458;28;20541;-87
2022/12/10 06:41:43;;;;;;;12.60;5.50;;;;;;;;;;5016524;28;20053;-87
2022/12/10 06:44:11;;;;;;;12.13;5.63;;;;;;;;;;5032968;28;20124;-87
2022/12/10 06:46:40;;;;;;;14.20;6.07;;;;;;;;;;5036776;28;20087;-88
2022/12/10 06:49:37;;;;;;;11.77;5.55;;;;;;;;;;5056831;28;20104;-88
2022/12/10 06:52:29;;;;;;;11.90;5.97;;;;;;;;;;5037994;28;20033;-87
2022/12/10 06:55:03;;;;;;;13.93;5.80;;;;;;;;;;5035832;28;20036;-88
2022/12/10 06:57:31;;;;;;;13.88;5.93;;;;;;;;;;5035850;28;21569;-88
2022/12/10 06:59:59;;;;;;;10.23;4.80;;;;;;;;;;5035048;28;20041;-87
2022/12/10 07:02:27;;;;;;;7.03;4.13;;;;;;;;;;5021545;28;20047;-88
2022/12/10 07:04:56;;;;;;;11.25;5.18;;;;;;;;;;5037001;28;20695;-87
2022/12/10 07:07:23;;;;;;;9.90;5.15;;;;;;;;;;5039399;28;20037;-87
2022/12/10 07:09:51;;;;;;;11.43;4.55;;;;;;;;;;5038094;28;20037;-87
2022/12/10 07:12:23;;;;;;;10.52;4.25;;;;;;;;;;5035388;28;20044;-87
2022/12/10 07:14:51;;;;;;;12.43;4.60;;;;;;;;;;5042830;28;20041;-88
2022/12/10 07:20:11;;;;;;;9.88;4.90;;;;;;;;;;5023526;28;20127;-88
2022/12/10 07:22:39;;;;;;;9.25;4.63;;;;;;;;;;5039484;28;20045;-88
2022/12/10 07:25:11;;;;;;;8.65;4.28;;;;;;;;;;5039520;28;20061;-88
2022/12/10 07:27:39;;;;;;;9.27;3.88;;;;;;;;;;5038064;28;20580;-88
2022/12/10 07:30:07;;;;;;;9.98;4.93;;;;;;;;;;5053630;28;20060;-88
2022/12/10 07:32:41;;;;;;;10.23;4.65;;;;;;;;;;5068784;28;20120;-88
2022/12/10 07:35:13;;;;;;;9.75;4.88;;;;;;;;;;5038441;28;20090;-88
2022/12/10 07:38:07;;;;;;;11.07;5.43;;;;;;;;;;5035109;28;20049;-88
2022/12/10 07:40:35;;;;;;;8.88;4.50;;;;;;;;;;5036089;28;20030;-88
2022/12/10 07:43:03;;;;;;;8.70;4.18;;;;;;;;;;5033761;28;20128;-88
2022/12/10 07:45:35;;;;;;;11.07;5.10;;;;;;;;;;5037734;28;20052;-88
2022/12/10 07:48:03;;;;;;;11.93;4.25;;;;;;;;;;5038342;28;20045;-88
2022/12/10 07:50:31;;;;;;;11.20;5.47;;;;;;;;;;5038602;28;20033;-87
2022/12/10 07:52:59;;;;;;;9.55;4.03;;;;;;;;;;5035264;28;20084;-88
2022/12/10 07:55:27;;;;;;;10.70;4.93;;;;;;;;;;5039986;28;20720;-88
2022/12/10 07:58:30;;;;;;;13.88;6.25;;;;;;;;;;5032905;28;20699;-88
2022/12/10 08:00:59;;;;;;;10.80;3.80;;;;;;;;;;5052153;28;20080;-88
2022/12/10 08:03:27;;;;;;;12.93;4.50;;;;;;;;;;5034326;28;20069;-87
2022/12/10 08:06:03;;;;;;;11.95;5.25;;;;;;;;;;5034446;28;20065;-88
2022/12/10 08:08:33;;;;;;;10.02;4.80;;;;;;;;;;5063077;28;20029;-88
2022/12/10 08:11:27;;;;;;;11.20;4.35;;;;;;;;;;5031296;28;20063;-88
2022/12/10 08:14:20;;;;;;;18.92;5.60;;;;;;;;;;5024410;28;20111;-88
2022/12/10 08:16:49;;;;;;;14.10;6.30;;;;;;;;;;5032275;28;20099;-88
2022/12/10 08:19:21;;;;;;;12.63;5.82;;;;;;;;;;5035685;28;20041;-88
2022/12/10 08:21:55;;;;;;;9.38;4.63;;;;;;;;;;5035448;28;20041;-88
2022/12/10 08:24:23;;;;;;;8.85;4.70;;;;;;;;;;5036155;28;20622;-88
2022/12/10 08:26:55;;;;;;;10.75;5.63;;;;;;;;;;5037116;28;20128;-90
2022/12/10 08:29:47;;;;;;;13.38;4.75;;;;;;;;;;5066644;28;20627;-90
2022/12/10 08:32:15;;;;;;;11.85;4.78;;;;;;;;;;5035942;28;20075;-90
2022/12/10 08:34:43;;;;;;;12.50;4.85;;;;;;;;;;5036590;28;20042;-90
2022/12/10 08:37:11;;;;;;;11.02;5.38;;;;;;;;;;5038929;28;20059;-91
2022/12/10 08:40:27;;;;;;;9.52;5.10;;;;;;;;;;5037750;28;20666;-90
2022/12/10 08:42:55;;;;;;;14.40;5.53;;;;;;;;;;5030780;28;20056;-90
2022/12/10 08:45:29;;;;;;;12.85;6.22;;;;;;;;;;5051457;28;20048;-90
2022/12/10 08:48:03;;;;;;;15.70;5.72;;;;;;;;;;5033326;28;20492;-91
2022/12/10 08:50:33;;;;;;;13.45;6.00;;;;;;;;;;5070234;28;20064;-90
2022/12/10 08:53:03;;;;;;;12.65;5.70;;;;;;;;;;5035838;28;20067;-90
2022/12/10 08:55:31;;;;;;;10.32;4.72;;;;;;;;;;5051971;28;20652;-90
2022/12/10 08:57:59;;;;;;;14.00;5.22;;;;;;;;;;5016713;28;20036;-90
2022/12/10 09:00:31;;;;;;;13.50;6.20;;;;;;;;;;5036207;28;20095;-90
2022/12/10 09:03:04;;;;;;;13.75;5.57;;;;;;;;;;5052570;28;20739;-90
2022/12/10 09:05:31;;;;;;;10.00;4.60;;;;;;;;;;5036601;28;20042;-90
2022/12/10 09:07:59;;;;;;;11.05;5.13;;;;;;;;;;5036159;28;20065;-90
2022/12/10 09:10:27;;;;;;;14.52;5.35;;;;;;;;;;5036777;28;20580;-90
2022/12/10 09:12:55;;;;;;;14.07;5.00;;;;;;;;;;5020985;28;20037;-90
2022/12/10 09:15:29;;;;;;;11.73;5.38;;;;;;;;;;5032642;28;20326;-90
2022/12/10 09:17:57;;;;;;;15.88;5.18;;;;;;;;;;5053648;28;20069;-90
2022/12/10 09:20:25;;;;;;;16.10;5.65;;;;;;;;;;5018055;28;20047;-90
2022/12/10 09:22:53;;;;;;;13.10;5.93;;;;;;;;;;5036859;28;20555;-91
2022/12/10 09:25:21;;;;;;;9.32;3.42;;;;;;;;;;5035280;28;20033;-90
2022/12/10 09:27:49;;;;;;;12.75;4.88;;;;;;;;;;5037240;28;20044;-90
2022/12/10 09:30:17;;;;;;;16.45;5.95;;;;;;;;;;4995622;28;20485;-90
2022/12/10 09:32:45;;;;;;;6.47;2.97;;;;;;;;;;5037564;28;20060;-90
2022/12/10 09:35:13;;;;;;;9.38;5.15;;;;;;;;;;5035144;28;20044;-90
2022/12/10 09:37:41;;;;;;;12.85;5.68;;;;;;;;;;5033203;28;20037;-90
2022/12/10 09:40:15;;;;;;;17.80;5.88;;;;;;;;;;5064934;28;20124;-90
2022/12/10 09:43:10;;;;;;;9.30;4.15;;;;;;;;;;5064671;28;20443;-90
2022/12/10 09:45:57;;;;;;;9.32;4.93;;;;;;;;;;5049719;28;20125;-90
2022/12/10 09:48:53;;;;;;;9.98;4.25;;;;;;;;;;5062560;28;20041;-90
2022/12/10 09:51:25;;;;;;;11.32;5.20;;;;;;;;;;5034987;28;20125;-90
2022/12/10 09:53:58;;;;;;;10.75;5.57;;;;;;;;;;5033866;28;20414;-88
2022/12/10 09:56:35;;;;;;;13.65;6.18;;;;;;;;;;5035724;28;20045;-88
2022/12/10 09:59:13;;;;;;;15.90;6.80;;;;;;;;;;5031993;28;20095;-87
2022/12/10 10:01:41;;;;;;;12.80;5.68;;;;;;;;;;5016426;28;20037;-87
2022/12/10 10:04:09;;;;;;;10.15;4.82;;;;;;;;;;5048873;28;20033;-88
2022/12/10 10:06:43;;;;;;;10.55;4.07;;;;;;;;;;5035572;28;20045;-88
2022/12/10 10:09:13;;;;;;;11.35;4.60;;;;;;;;;;5014660;28;20041;-88
2022/12/10 10:11:41;;;;;;;13.80;5.00;;;;;;;;;;5037487;28;20037;-87
2022/12/10 10:14:14;;;;;;;11.43;5.07;;;;;;;;;;5070402;28;20121;-87
2022/12/10 10:16:47;;;;;;;10.23;4.55;;;;;;;;;;5032944;28;20072;-86
2022/12/10 10:19:41;;;;;;;9.27;5.00;;;;;;;;;;5046965;28;20025;-87
2022/12/10 10:22:13;;;;;;;14.73;6.10;;;;;;;;;;5067234;28;20049;-87
2022/12/10 10:24:45;;;;;;;10.00;4.80;;;;;;;;;;5035759;28;20030;-87
2022/12/10 10:27:30;;;;;;;11.00;5.75;;;;;;;;;;5030049;28;20527;-87
2022/12/10 10:29:59;;;;;;;13.65;6.47;;;;;;;;;;5065779;28;20053;-87
2022/12/10 10:32:51;;;;;;;9.75;4.75;;;;;;;;;;5022454;28;20056;-87
2022/12/10 10:35:33;;;;;;;7.60;4.18;;;;;;;;;;5039848;28;20452;-87
2022/12/10 10:38:06;;;;;;;11.00;4.65;;;;;;;;;;5065611;28;20037;-87
2022/12/10 10:40:59;;;;;;;8.98;4.20;;;;;;;;;;5038470;28;20144;-88
2022/12/10 10:43:32;;;;;;;9.52;4.35;;;;;;;;;;5035374;28;20077;-88
2022/12/10 10:46:12;;;;;;;12.02;4.82;;;;;;;;;;5045995;28;20109;-88
2022/12/10 10:48:39;;;;;;;8.40;3.90;;;;;;;;;;5058366;28;20088;-89
2022/12/10 10:51:15;;;;;;;10.20;4.15;;;;;;;;;;5040013;28;20139;-88
2022/12/10 10:53:56;;;;;;;8.88;3.90;;;;;;;;;;5072593;28;20041;-88
2022/12/10 10:56:31;;;;;;;10.35;4.60;;;;;;;;;;4994845;28;20053;-89
2022/12/10 10:59:05;;;;;;;10.27;4.47;;;;;;;;;;5040482;28;20191;-88
2022/12/10 11:02:04;;;;;;;8.52;4.43;;;;;;;;;;5039098;28;20037;-88
2022/12/10 11:04:49;;;;;;;11.88;4.80;;;;;;;;;;5040502;28;20049;-89
2022/12/10 11:07:43;;;;;;;10.95;4.78;;;;;;;;;;5045145;28;20036;-88
2022/12/10 11:10:22;;;;;;;11.68;5.20;;;;;;;;;;5071805;28;20033;-89
2022/12/10 11:13:04;;;;;;;10.57;4.13;;;;;;;;;;5042969;28;20400;-88
2022/12/10 11:15:41;;;;;;;10.07;4.50;;;;;;;;;;5021848;28;20608;-88
2022/12/10 11:18:32;;;;;;;9.43;4.18;;;;;;;;;;5073532;28;20039;-89
2022/12/10 11:21:21;;;;;;;8.95;4.55;;;;;;;;;;5044643;28;20046;-88
2022/12/10 11:23:53;;;;;;;11.63;5.50;;;;;;;;;;5078057;28;20047;-87
2022/12/10 11:26:45;;;;;;;10.43;5.20;;;;;;;;;;5049181;28;20051;-88
2022/12/10 11:29:28;;;;;;;12.90;4.50;;;;;;;;;;5044648;28;20041;-88
2022/12/10 11:32:46;;;;;;;13.85;5.00;;;;;;;;;;5039767;28;20060;-88
2022/12/10 11:35:36;;;;;;;10.55;5.00;;;;;;;;;;5029150;28;20037;-87
2022/12/10 11:38:27;;;;;;;10.75;4.65;;;;;;;;;;5048623;28;20044;-87
2022/12/10 11:41:16;;;;;;;11.35;5.32;;;;;;;;;;5034852;28;20618;-88
2022/12/10 11:43:53;;;;;;;13.45;5.10;;;;;;;;;;5036653;28;20037;-88
2022/12/10 11:46:25;;;;;;;10.07;4.95;;;;;;;;;;5054451;28;20065;-88
2022/12/10 11:49:25;;;;;;;14.30;4.70;;;;;;;;;;5042860;28;20033;-87
2022/12/10 11:52:23;;;;;;;12.93;5.38;;;;;;;;;;4936589;29;20087;-88
2022/12/10 11:55:24;;;;;;;13.73;4.75;;;;;;;;;;4949147;28;20051;-88
2022/12/10 11:58:15;;;;;;;10.30;4.65;;;;;;;;;;4946155;29;20571;-87
2022/12/10 12:00:54;;;;;;;10.73;5.05;;;;;;;;;;4946418;28;20047;-88
2022/12/10 12:03:35;;;;;;;11.60;5.80;;;;;;;;;;4925694;29;20039;-89
2022/12/10 12:06:05;;;;;;;11.55;5.20;;;;;;;;;;4943841;29;20054;-89
2022/12/10 12:09:16;;;;;;;17.05;6.03;;;;;;;;;;4960902;29;20055;-89
2022/12/10 12:11:56;;;;;;;11.30;4.85;;;;;;;;;;4939493;29;20051;-89
2022/12/10 12:14:40;;;;;;;12.85;5.07;;;;;;;;;;4953501;29;20074;-89
2022/12/10 12:17:24;;;;;;;11.82;4.75;;;;;;;;;;4941489;29;20039;-88
2022/12/10 12:20:12;;;;;;;14.65;5.45;;;;;;;;;;4936362;29;20079;-89
2022/12/10 12:22:43;;;;;;;6.85;2.95;;;;;;;;;;4915709;29;20047;-89
2022/12/10 12:25:39;;;;;;;12.75;5.13;;;;;;;;;;4950224;28;20094;-88
2022/12/10 12:28:14;;;;;;;11.63;5.88;;;;;;;;;;5003039;28;20140;-88
2022/12/10 12:30:52;;;;;;;15.68;5.93;;;;;;;;;;5030200;28;20127;-87
2022/12/10 12:33:34;;;;;;;11.98;5.78;;;;;;;;;;5035818;28;20047;-88
2022/12/10 12:36:15;;;;;;;11.48;4.90;;;;;;;;;;5034422;28;20034;-87
2022/12/10 12:38:56;;;;;;;15.27;6.72;;;;;;;;;;5018904;28;20499;-89
2022/12/10 12:41:45;;;;;;;15.77;6.47;;;;;;;;;;5053627;28;20052;-90
2022/12/10 12:44:56;;;;;;;12.38;6.57;;;;;;;;;;5029081;28;20461;-90
2022/12/10 12:47:43;;;;;;;10.38;5.22;;;;;;;;;;5017804;28;20079;-89
2022/12/10 12:50:43;;;;;;;14.18;5.50;;;;;;;;;;5050168;28;20032;-89
2022/12/10 12:53:13;;;;;;;16.20;6.32;;;;;;;;;;5053866;28;20053;-90
2022/12/10 12:55:40;;;;;;;14.82;6.32;;;;;;;;;;5053873;28;20038;-91
2022/12/10 12:58:29;;;;;;;17.00;7.68;;;;;;;;;;5076615;28;20108;-90
2022/12/10 13:01:04;;;;;;;18.48;7.18;;;;;;;;;;5072595;28;20057;-90
2022/12/10 13:03:39;;;;;;;15.23;7.60;;;;;;;;;;5045999;28;20119;-90
2022/12/10 13:06:33;;;;;;;15.30;6.60;;;;;;;;;;5042511;28;20048;-89
2022/12/10 13:09:27;;;;;;;15.82;6.50;;;;;;;;;;5016077;28;20036;-89
2022/12/10 13:12:04;;;;;;;16.27;6.75;;;;;;;;;;5038412;28;20497;-89
2022/12/10 13:15:31;;;;;;;16.27;6.70;;;;;;;;;;5030222;28;20049;-89
2022/12/10 13:18:21;;;;;;;15.60;7.15;;;;;;;;;;5034139;28;20053;-88
2022/12/10 13:21:12;;;;;;;15.73;6.03;;;;;;;;;;5033904;28;20048;-89
2022/12/10 13:23:50;;;;;;;17.13;6.68;;;;;;;;;;5019519;28;20107;-89
2022/12/10 13:26:30;;;;;;;19.58;5.90;;;;;;;;;;5007274;28;20494;-89
2022/12/10 13:29:23;;;;;;;16.30;7.70;;;;;;;;;;5048024;28;20087;-89
2022/12/10 13:32:03;;;;;;;16.17;6.82;;;;;;;;;;5020042;28;20042;-89
2022/12/10 13:34:34;;;;;;;14.95;6.18;;;;;;;;;;5027572;28;20494;-89
2022/12/10 13:37:13;;;;;;;12.70;5.47;;;;;;;;;;5034101;28;20056;-89
2022/12/10 13:40:07;;;;;;;13.18;6.82;;;;;;;;;;5027166;28;20072;-88
2022/12/10 13:46:23;;;;;;;13.55;6.18;;;;;;;;;;5064869;28;20041;-88
2022/12/10 13:48:59;;;;;;;14.27;5.68;;;;;;;;;;5030039;28;20509;-88
2022/12/10 13:51:43;;;;;;;14.93;6.50;;;;;;;;;;5037784;28;20046;-88
2022/12/10 13:54:46;;;;;;;14.02;6.32;;;;;;;;;;5033158;28;20041;-88
2022/12/10 13:57:30;;;;;;;17.73;6.97;;;;;;;;;;5061681;28;20041;-90
2022/12/10 14:00:09;;;;;;;16.50;6.10;;;;;;;;;;5034582;28;20040;-89
2022/12/10 14:03:16;;;;;;;18.73;8.07;;;;;;;;;;5031016;28;20121;-88
2022/12/10 14:05:50;;;;;;;14.93;5.80;;;;;;;;;;5028292;28;20405;-88
2022/12/10 14:09:13;;;;;;;16.33;5.78;;;;;;;;;;5030678;28;20041;-88
2022/12/10 14:12:10;;;;;;;17.08;6.43;;;;;;;;;;5029981;28;20045;-88
2022/12/10 14:14:48;;;;;;;19.67;7.75;;;;;;;;;;5033758;28;20074;-88
2022/12/10 14:17:21;;;;;;;16.80;6.53;;;;;;;;;;5022186;28;20091;-89
2022/12/10 14:19:53;;;;;;;16.88;7.10;;;;;;;;;;5046754;28;20049;-88
2022/12/10 14:22:38;;;;;;;16.30;6.60;;;;;;;;;;5031533;28;20999;-89
2022/12/10 14:25:11;;;;;;;15.48;6.88;;;;;;;;;;5046805;28;20041;-89
2022/12/10 14:27:39;;;;;;;19.23;7.22;;;;;;;;;;5041962;28;20041;-89
2022/12/10 14:30:23;;;;;;;18.02;6.82;;;;;;;;;;5028314;28;20052;-88
2022/12/10 14:32:54;;;;;;;14.13;5.93;;;;;;;;;;5016921;28;20055;-87
2022/12/10 14:35:23;;;;;;;14.93;6.53;;;;;;;;;;5032204;28;20066;-88
2022/12/10 14:37:59;;;;;;;17.75;6.40;;;;;;;;;;5027917;28;20051;-88
2022/12/10 14:40:32;;;;;;;16.10;6.25;;;;;;;;;;5046233;28;20037;-89
2022/12/10 14:43:08;;;;;;;16.17;7.10;;;;;;;;;;5039365;28;20046;-89
2022/12/10 14:45:51;;;;;;;16.08;6.35;;;;;;;;;;5055158;28;20034;-89
2022/12/10 14:48:23;;;;;;;17.30;7.20;;;;;;;;;;5039743;28;20080;-90
2022/12/10 14:50:51;;;;;;;14.63;5.70;;;;;;;;;;5025717;28;20057;-90
2022/12/10 14:53:23;;;;;;;14.60;6.13;;;;;;;;;;5048158;28;20049;-89
2022/12/10 14:56:30;;;;;;;15.63;6.28;;;;;;;;;;5052429;28;20037;-90
2022/12/10 14:59:21;;;;;;;18.80;7.10;;;;;;;;;;5040894;28;20046;-88
2022/12/10 15:01:56;;;;;;;18.08;6.45;;;;;;;;;;5040576;28;20128;-90
2022/12/10 15:04:24;;;;;;;16.67;7.22;;;;;;;;;;5051650;28;20051;-89
2022/12/10 15:06:58;;;;;;;20.90;6.88;;;;;;;;;;5053556;28;20044;-89
2022/12/10 15:09:31;;;;;;;19.98;7.35;;;;;;;;;;5032045;28;20041;-88
2022/12/10 15:11:59;;;;;;;18.90;5.80;;;;;;;;;;5035136;28;20049;-88
2022/12/10 15:14:29;;;;;;;24.63;8.65;;;;;;;;;;5041254;28;20045;-88
2022/12/10 15:17:03;;;;;;;16.42;6.45;;;;;;;;;;5025884;28;20037;-88
2022/12/10 15:19:33;;;;;;;16.55;6.45;;;;;;;;;;5037774;28;20042;-89
2022/12/10 15:22:17;;;;;;;14.50;6.55;;;;;;;;;;5045129;28;20138;-89
2022/12/10 15:24:45;;;;;;;20.17;6.95;;;;;;;;;;5033378;28;20080;-89
2022/12/10 15:27:18;;;;;;;15.70;6.03;;;;;;;;;;5021699;28;20071;-89
2022/12/10 15:29:47;;;;;;;16.10;6.20;;;;;;;;;;5034798;28;20043;-89
2022/12/10 15:32:26;;;;;;;17.15;6.90;;;;;;;;;;5030539;28;20041;-87
2022/12/10 15:34:58;;;;;;;16.30;6.35;;;;;;;;;;5038115;28;20072;-88
2022/12/10 15:37:34;;;;;;;16.48;6.85;;;;;;;;;;5040432;28;20040;-87
2022/12/10 15:40:04;;;;;;;18.25;6.32;;;;;;;;;;5030941;28;20064;-88
2022/12/10 15:42:41;;;;;;;16.30;6.53;;;;;;;;;;5069297;28;20493;-88
2022/12/10 15:45:41;;;;;;;20.08;7.03;;;;;;;;;;5041526;28;20048;-88
2022/12/10 15:48:11;;;;;;;17.30;6.22;;;;;;;;;;5049833;28;20457;-89
2022/12/10 15:50:45;;;;;;;15.55;6.43;;;;;;;;;;5034924;28;20040;-89
2022/12/10 15:53:16;;;;;;;15.20;5.70;;;;;;;;;;5035226;28;20049;-90
2022/12/10 15:55:43;;;;;;;18.30;6.32;;;;;;;;;;5035791;28;20051;-89
2022/12/10 15:58:12;;;;;;;15.05;6.32;;;;;;;;;;5035571;28;20568;-89
2022/12/10 16:00:46;;;;;;;17.27;7.75;;;;;;;;;;5036333;28;20036;-89